createdAt,value
2022-09-12T00:02:15.634Z,99484.88
2022-09-12T00:17:17.799Z,99483.66
2022-09-12T00:32:20.194Z,99475.97
2022-09-12T00:47:31.879Z,99455.22
2022-09-12T01:02:33.696Z,99447.59
2022-09-12T01:18:05.962Z,99439.19
2022-09-12T01:33:33.423Z,99439.63
2022-09-12T01:49:01.467Z,99434.69
2022-09-12T02:04:10.759Z,99435.25
2022-09-12T02:19:18.792Z,99425.59
2022-09-12T02:34:26.469Z,99427.22
2022-09-12T02:49:28.354Z,99428.19
2022-09-12T03:04:57.650Z,99434.69
2022-09-12T03:20:35.082Z,99415.28
2022-09-12T03:35:36.871Z,99416.22
2022-09-12T03:50:38.694Z,99421.69
2022-09-12T04:05:40.479Z,99431.91
2022-09-12T04:20:43.086Z,99434.22
2022-09-12T04:35:45.598Z,99457.59
2022-09-12T04:50:47.419Z,99450.88
2022-09-12T05:05:52.205Z,99431.09
2022-09-12T05:20:56.651Z,99448.78
2022-09-12T05:35:58.950Z,99455.25
2022-09-12T05:51:02.765Z,99442.06
2022-09-12T06:06:06.504Z,99462.25
2022-09-12T06:21:13.002Z,99441.66
2022-09-12T06:36:21.324Z,99460.72
2022-09-12T06:51:23.651Z,99476.25
2022-09-12T07:06:32.056Z,99460.00
2022-09-12T07:21:40.660Z,99458.72
2022-09-12T07:52:00.915Z,99451.00
2022-09-12T08:07:02.778Z,99421.56
2022-09-12T08:22:05.757Z,99430.50
2022-09-12T08:37:07.571Z,99421.31
2022-09-12T08:52:17.509Z,99388.88
2022-09-12T09:07:50.502Z,99392.47
2022-09-12T09:22:58.546Z,99384.69
2022-09-12T09:38:24.803Z,99371.94
2022-09-12T09:53:29.429Z,99359.44
2022-09-12T10:08:37.855Z,99346.25
2022-09-12T10:23:41.612Z,99372.59
2022-09-12T10:38:58.144Z,99399.38
2022-09-12T10:54:02.858Z,99407.75
2022-09-12T11:09:25.147Z,99398.97
2022-09-12T11:24:27.219Z,99381.63
2022-09-12T11:39:52.278Z,99348.75
2022-09-12T11:55:15.125Z,99364.13
2022-09-12T12:10:40.962Z,99340.00
2022-09-12T12:25:55.709Z,99320.59
2022-09-12T12:41:19.543Z,99312.63
2022-09-12T12:56:33.586Z,99291.06
2022-09-12T13:11:41.750Z,99292.13
2022-09-12T13:26:47.916Z,99290.69
2022-09-12T13:42:08.210Z,99298.56
2022-09-12T13:57:29.784Z,99300.44
2022-09-12T14:12:36.401Z,99315.31
2022-09-12T14:27:46.134Z,99285.28
2022-09-12T14:42:53.025Z,99288.06
2022-09-12T14:58:14.287Z,99282.59
2022-09-12T15:13:26.054Z,99273.56
2022-09-12T15:28:28.802Z,99258.06
2022-09-12T15:43:30.579Z,99247.53
2022-09-12T15:58:32.361Z,99264.75
2022-09-12T16:13:34.333Z,99266.41
2022-09-12T16:28:36.568Z,99255.34
2022-09-12T16:43:38.807Z,99282.75
2022-09-12T16:58:42.280Z,99281.47
2022-09-12T17:14:07.854Z,99288.41
2022-09-12T17:29:14.157Z,99297.19
2022-09-12T17:44:16.415Z,99306.09
2022-09-12T17:59:20.882Z,99270.59
2022-09-12T18:14:23.436Z,99276.31
2022-09-12T18:29:28.281Z,99284.47
2022-09-12T18:44:30.176Z,99287.19
2022-09-12T18:59:32.009Z,99262.09
2022-09-12T19:14:33.927Z,99246.09
2022-09-12T19:29:35.932Z,99221.56
2022-09-12T19:44:38.417Z,99223.94
2022-09-12T19:59:40.362Z,99244.56
2022-09-12T20:14:42.353Z,99231.28
2022-09-12T20:29:44.474Z,99254.53
2022-09-12T20:44:46.255Z,99234.31
2022-09-12T20:59:48.147Z,99225.91
2022-09-12T21:14:50.069Z,99211.31
2022-09-12T21:29:53.693Z,99200.44
2022-09-12T21:44:55.541Z,99185.00
2022-09-12T21:59:57.963Z,99175.88
2022-09-12T22:14:59.875Z,99180.28
2022-09-12T22:30:01.831Z,99193.53
2022-09-12T22:45:05.369Z,99198.06
2022-09-12T23:00:10.667Z,99198.25
2022-09-12T23:15:12.568Z,99184.06
2022-09-12T23:30:14.646Z,99174.41
2022-09-12T23:45:16.794Z,99171.16
